createdAt,value
2023-08-07T00:00:27.658Z,56.90
2023-08-07T00:01:27.706Z,56.67
2023-08-07T00:02:27.734Z,56.64
2023-08-07T00:03:27.639Z,56.83
2023-08-07T00:04:27.654Z,56.94
2023-08-07T00:05:27.594Z,56.60
2023-08-07T00:06:27.570Z,56.98
2023-08-07T00:07:27.577Z,57.21
2023-08-07T00:08:27.663Z,56.90
2023-08-07T00:09:27.545Z,55.92
2023-08-07T00:10:27.535Z,55.70
2023-08-07T00:11:27.535Z,55.29
2023-08-07T00:12:27.517Z,55.19
2023-08-07T00:13:27.507Z,55.26
2023-08-07T00:14:27.526Z,54.79
2023-08-07T00:15:27.475Z,54.76
2023-08-07T00:16:27.472Z,54.76
2023-08-07T00:17:27.482Z,55.01
2023-08-07T00:18:27.453Z,55.04
2023-08-07T00:19:27.435Z,55.99
2023-08-07T00:20:27.440Z,55.55
2023-08-07T00:21:27.436Z,55.48
2023-08-07T00:22:27.452Z,55.11
2023-08-07T00:23:27.400Z,54.54
2023-08-07T00:24:27.394Z,54.47
2023-08-07T00:25:27.374Z,54.44
2023-08-07T00:26:27.371Z,54.61
2023-08-07T00:27:27.367Z,54.90
2023-08-07T00:28:27.469Z,54.86
2023-08-07T00:29:27.382Z,54.51
2023-08-07T00:30:27.377Z,54.83
2023-08-07T00:31:27.385Z,54.90
2023-08-07T00:32:27.358Z,54.93
2023-08-07T00:33:27.342Z,55.15
2023-08-07T00:34:27.281Z,54.68
2023-08-07T00:35:27.285Z,54.40
2023-08-07T00:36:27.304Z,54.40
2023-08-07T00:37:27.260Z,54.26
2023-08-07T00:38:27.253Z,54.05
2023-08-07T00:39:27.259Z,54.05
2023-08-07T00:40:27.212Z,54.37
2023-08-07T00:41:27.223Z,54.12
2023-08-07T00:42:27.234Z,54.58
2023-08-07T00:43:27.229Z,54.40
2023-08-07T00:44:27.178Z,53.84
2023-08-07T00:45:27.184Z,53.67
2023-08-07T00:46:27.195Z,53.60
2023-08-07T00:47:27.226Z,53.67
2023-08-07T00:48:27.171Z,53.84
2023-08-07T00:49:27.126Z,54.15
2023-08-07T00:50:34.278Z,54.08
2023-08-07T00:51:27.109Z,54.08
2023-08-07T00:52:27.117Z,54.19
2023-08-07T00:53:27.117Z,54.22
2023-08-07T00:54:27.112Z,54.02
2023-08-07T00:55:27.116Z,53.50
2023-08-07T00:56:27.065Z,53.23
2023-08-07T00:57:27.064Z,53.16
2023-08-07T00:58:27.077Z,53.23
2023-08-07T00:59:27.062Z,53.36
2023-08-07T01:00:27.024Z,53.74
2023-08-07T01:01:27.103Z,53.95
2023-08-07T01:02:27.110Z,53.84
2023-08-07T01:03:27.042Z,53.57
2023-08-07T01:04:27.021Z,53.43
2023-08-07T01:05:26.970Z,53.16
2023-08-07T01:06:26.949Z,53.10
2023-08-07T01:07:26.964Z,52.89
2023-08-07T01:08:26.933Z,52.79
2023-08-07T01:09:26.929Z,52.76
2023-08-07T01:10:26.936Z,52.76
2023-08-07T01:11:26.913Z,52.69
2023-08-07T01:12:26.961Z,52.73
2023-08-07T01:13:26.934Z,52.56
2023-08-07T01:14:26.871Z,52.83
2023-08-07T01:15:26.882Z,52.50
2023-08-07T01:16:26.898Z,52.43
2023-08-07T01:17:26.902Z,52.83
2023-08-07T01:18:26.890Z,53.47
2023-08-07T01:19:26.822Z,53.57
2023-08-07T01:20:26.823Z,53.06
2023-08-07T01:21:26.795Z,53.16
2023-08-07T01:22:26.815Z,53.88
2023-08-07T01:23:26.790Z,53.60
2023-08-07T01:24:26.762Z,53.23
2023-08-07T01:25:26.776Z,53.13
2023-08-07T01:26:26.821Z,52.73
2023-08-07T01:27:26.760Z,53.13
2023-08-07T01:28:26.738Z,52.93
2023-08-07T01:29:26.768Z,52.69
2023-08-07T01:30:26.764Z,53.43
2023-08-07T01:31:26.749Z,53.03
2023-08-07T01:32:26.725Z,52.99
2023-08-07T01:33:26.672Z,52.96
2023-08-07T01:34:26.662Z,53.26
2023-08-07T01:35:26.666Z,53.36
2023-08-07T01:36:26.677Z,53.43
2023-08-07T01:37:26.645Z,53.36
2023-08-07T01:38:26.700Z,53.23
2023-08-07T01:39:26.639Z,52.76
2023-08-07T01:40:26.633Z,52.24
2023-08-07T01:41:26.635Z,51.66
2023-08-07T01:42:26.634Z,51.34
2023-08-07T01:43:26.671Z,51.06
2023-08-07T01:44:26.630Z,50.88
2023-08-07T01:45:26.596Z,50.66
2023-08-07T01:46:26.581Z,50.12
2023-08-07T01:47:26.599Z,49.33
2023-08-07T01:48:27.281Z,49.38
2023-08-07T01:49:26.533Z,49.15
2023-08-07T01:50:26.527Z,48.98
2023-08-07T01:51:26.512Z,49.12
2023-08-07T01:52:26.488Z,49.04
2023-08-07T01:53:26.462Z,48.98
2023-08-07T01:54:26.460Z,48.70
2023-08-07T01:55:26.492Z,48.44
2023-08-07T01:56:26.435Z,48.81
2023-08-07T01:57:26.438Z,48.92
2023-08-07T01:58:26.462Z,48.58
2023-08-07T01:59:26.471Z,48.90
2023-08-07T02:00:26.425Z,48.64
2023-08-07T02:01:26.447Z,48.39
2023-08-07T02:02:26.450Z,48.06
2023-08-07T02:03:26.420Z,48.33
2023-08-07T02:04:26.374Z,48.72
2023-08-07T02:05:26.391Z,48.72
2023-08-07T02:06:26.331Z,48.31
2023-08-07T02:07:26.345Z,48.64
2023-08-07T02:08:26.353Z,48.64
2023-08-07T02:09:26.338Z,48.19
2023-08-07T02:10:26.313Z,47.73
2023-08-07T02:11:26.425Z,48.19
2023-08-07T02:12:26.330Z,48.00
2023-08-07T02:13:26.268Z,48.39
2023-08-07T02:14:26.323Z,49.01
2023-08-07T02:15:26.256Z,49.21
2023-08-07T02:16:26.307Z,49.59
2023-08-07T02:17:26.321Z,49.67
2023-08-07T02:18:26.249Z,50.06
2023-08-07T02:19:26.198Z,50.15
2023-08-07T02:20:26.329Z,50.15
2023-08-07T02:21:26.182Z,50.57
2023-08-07T02:22:26.184Z,51.28
2023-08-07T02:23:26.182Z,50.97
2023-08-07T02:24:26.147Z,50.94
2023-08-07T02:25:26.143Z,51.09
2023-08-07T02:26:26.150Z,51.19
2023-08-07T02:27:26.133Z,51.66
2023-08-07T02:28:26.106Z,52.96
2023-08-07T02:29:26.146Z,52.73
2023-08-07T02:30:26.078Z,53.23
2023-08-07T02:31:26.135Z,53.84
2023-08-07T02:32:26.129Z,53.53
2023-08-07T02:33:26.048Z,53.40
2023-08-07T02:34:26.051Z,53.13
2023-08-07T02:35:26.075Z,52.83
2023-08-07T02:36:26.086Z,53.10
2023-08-07T02:37:26.047Z,54.05
2023-08-07T02:38:26.009Z,54.26
2023-08-07T02:39:25.983Z,54.15
2023-08-07T02:40:26.005Z,54.12
2023-08-07T02:41:26.029Z,53.71
2023-08-07T02:42:25.958Z,54.08
2023-08-07T02:43:25.957Z,54.72
2023-08-07T02:44:25.947Z,54.37
2023-08-07T02:45:25.961Z,54.08
2023-08-07T02:46:26.019Z,53.77
2023-08-07T02:47:25.972Z,53.84
2023-08-07T02:48:25.902Z,53.81
2023-08-07T02:49:25.966Z,53.91
2023-08-07T02:50:25.914Z,53.47
2023-08-07T02:51:25.892Z,54.22
2023-08-07T02:52:25.941Z,54.51
2023-08-07T02:53:25.881Z,54.29
2023-08-07T02:54:25.848Z,53.88
2023-08-07T02:55:25.845Z,53.60
2023-08-07T02:56:25.841Z,54.15
2023-08-07T02:57:25.794Z,54.90
2023-08-07T02:58:25.878Z,55.01
2023-08-07T02:59:25.802Z,55.33
2023-08-07T03:00:25.778Z,55.40
2023-08-07T03:01:25.814Z,55.26
2023-08-07T03:02:25.818Z,55.55
2023-08-07T03:03:25.780Z,55.33
2023-08-07T03:04:25.765Z,55.85
2023-08-07T03:05:25.841Z,56.07
2023-08-07T03:06:25.702Z,56.67
2023-08-07T03:07:25.750Z,56.29
2023-08-07T03:08:25.687Z,55.85
2023-08-07T03:09:25.683Z,55.74
2023-08-07T03:10:26.832Z,56.52
2023-08-07T03:11:25.673Z,56.29
2023-08-07T03:12:25.645Z,55.85
2023-08-07T03:13:25.653Z,55.81
2023-08-07T03:14:25.651Z,55.88
2023-08-07T03:15:25.648Z,56.14
2023-08-07T03:16:25.655Z,56.03
2023-08-07T03:17:25.696Z,56.45
2023-08-07T03:18:25.582Z,56.71
2023-08-07T03:19:25.575Z,56.79
2023-08-07T03:20:25.600Z,56.64
2023-08-07T03:21:25.558Z,56.71
2023-08-07T03:22:25.555Z,56.75
2023-08-07T03:23:25.572Z,57.14
2023-08-07T03:24:25.533Z,57.14
2023-08-07T03:25:25.611Z,57.45
2023-08-07T03:26:25.525Z,57.33
2023-08-07T03:27:25.501Z,57.18
2023-08-07T03:28:25.474Z,56.67
2023-08-07T03:29:25.516Z,56.48
2023-08-07T03:30:25.484Z,55.70
2023-08-07T03:31:25.510Z,55.92
2023-08-07T03:32:25.483Z,55.99
2023-08-07T03:33:25.480Z,56.03
2023-08-07T03:34:25.422Z,56.98
2023-08-07T03:35:25.457Z,56.90
2023-08-07T03:36:25.419Z,56.67
2023-08-07T03:37:25.428Z,56.11
2023-08-07T03:38:25.401Z,55.70
2023-08-07T03:39:25.368Z,55.66
2023-08-07T03:40:25.425Z,56.64
2023-08-07T03:41:25.350Z,56.60
2023-08-07T03:42:25.351Z,56.45
2023-08-07T03:43:25.318Z,56.07
2023-08-07T03:44:25.326Z,56.52
2023-08-07T03:45:25.332Z,56.71
2023-08-07T03:46:25.313Z,56.90
2023-08-07T03:47:25.303Z,56.60
2023-08-07T03:48:25.298Z,56.48
2023-08-07T03:49:25.266Z,56.71
2023-08-07T03:50:25.282Z,56.41
2023-08-07T03:51:25.357Z,56.11
2023-08-07T03:52:25.276Z,56.29
2023-08-07T03:53:25.219Z,56.87
2023-08-07T03:54:25.263Z,56.52
2023-08-07T03:55:25.238Z,55.96
2023-08-07T03:56:25.193Z,55.88
2023-08-07T03:57:25.173Z,55.22
2023-08-07T03:58:25.209Z,55.77
2023-08-07T03:59:25.163Z,55.29
2023-08-07T04:00:25.196Z,55.08
2023-08-07T04:01:25.231Z,54.76
2023-08-07T04:02:25.178Z,54.12
2023-08-07T04:03:25.217Z,54.40
2023-08-07T04:04:25.193Z,54.72
2023-08-07T04:05:25.127Z,55.08
2023-08-07T04:06:25.152Z,54.97
2023-08-07T04:07:25.096Z,54.97
2023-08-07T04:08:25.137Z,55.29
2023-08-07T04:09:25.068Z,55.85
2023-08-07T04:10:25.078Z,56.07
2023-08-07T04:11:25.123Z,56.14
2023-08-07T04:12:25.070Z,56.29
2023-08-07T04:13:25.058Z,55.77
2023-08-07T04:14:24.995Z,55.62
2023-08-07T04:15:25.006Z,55.88
2023-08-07T04:16:25.063Z,56.67
2023-08-07T04:17:25.045Z,57.14
2023-08-07T04:18:24.977Z,57.33
2023-08-07T04:19:24.974Z,57.18
2023-08-07T04:20:24.956Z,56.83
2023-08-07T04:21:24.948Z,57.06
2023-08-07T04:22:24.939Z,57.45
2023-08-07T04:23:24.957Z,57.84
2023-08-07T04:24:24.908Z,58.33
2023-08-07T04:25:24.909Z,57.88
2023-08-07T04:26:24.866Z,57.92
2023-08-07T04:27:24.908Z,58.04
2023-08-07T04:28:24.882Z,57.45
2023-08-07T04:29:24.924Z,58.29
2023-08-07T04:30:24.837Z,58.73
2023-08-07T04:31:24.886Z,58.73
2023-08-07T04:32:26.585Z,58.86
2023-08-07T04:33:24.831Z,59.40
2023-08-07T04:34:24.793Z,59.91
2023-08-07T04:35:24.810Z,60.03
2023-08-07T04:36:24.807Z,60.21
2023-08-07T04:37:24.760Z,59.27
2023-08-07T04:38:24.763Z,59.06
2023-08-07T04:39:24.754Z,59.27
2023-08-07T04:40:24.729Z,58.57
2023-08-07T04:41:24.757Z,59.15
2023-08-07T04:42:24.741Z,60.12
2023-08-07T04:43:24.732Z,60.12
2023-08-07T04:44:24.679Z,60.90
2023-08-07T04:45:24.690Z,60.77
2023-08-07T04:46:25.000Z,60.47
2023-08-07T04:47:24.715Z,60.90
2023-08-07T04:48:24.653Z,61.62
2023-08-07T04:49:24.661Z,60.68
2023-08-07T04:50:24.647Z,60.25
2023-08-07T04:51:24.616Z,59.95
2023-08-07T04:52:26.843Z,60.33
2023-08-07T04:53:24.632Z,60.33
2023-08-07T04:54:24.608Z,60.77
2023-08-07T04:55:24.594Z,60.55
2023-08-07T04:56:24.566Z,60.38
2023-08-07T04:57:24.580Z,60.33
2023-08-07T04:58:24.554Z,60.90
2023-08-07T04:59:24.616Z,61.85
2023-08-07T05:00:24.532Z,62.58
2023-08-07T05:01:24.561Z,62.30
2023-08-07T05:02:24.589Z,61.57
2023-08-07T05:03:24.607Z,61.57
2023-08-07T05:04:24.684Z,61.75
2023-08-07T05:05:24.656Z,61.89
2023-08-07T05:06:24.507Z,61.98
2023-08-07T05:07:24.444Z,61.66
2023-08-07T05:08:24.435Z,62.44
2023-08-07T05:09:24.609Z,62.96
2023-08-07T05:10:24.422Z,62.96
2023-08-07T05:11:24.603Z,62.96
2023-08-07T05:12:24.411Z,63.10
2023-08-07T05:13:24.414Z,62.26
2023-08-07T05:14:24.370Z,62.12
2023-08-07T05:15:24.418Z,61.80
2023-08-07T05:16:24.486Z,61.66
2023-08-07T05:17:24.378Z,60.82
2023-08-07T05:18:24.337Z,60.68
2023-08-07T05:19:24.334Z,60.33
2023-08-07T05:20:24.342Z,60.95
2023-08-07T05:21:24.328Z,61.39
2023-08-07T05:22:24.313Z,62.03
2023-08-07T05:23:24.277Z,61.85
2023-08-07T05:24:24.273Z,61.85
2023-08-07T05:25:24.286Z,60.51
2023-08-07T05:26:24.260Z,59.48
2023-08-07T05:27:24.262Z,59.06
2023-08-07T05:28:24.225Z,59.27
2023-08-07T05:29:24.218Z,59.31
2023-08-07T05:30:24.206Z,59.69
2023-08-07T05:31:24.194Z,60.47
2023-08-07T05:32:24.262Z,60.21
2023-08-07T05:33:24.199Z,59.31
2023-08-07T05:34:24.171Z,59.06
2023-08-07T05:35:24.173Z,59.61
2023-08-07T05:36:24.155Z,59.74
2023-08-07T05:37:24.144Z,59.99
2023-08-07T05:38:24.230Z,59.40
2023-08-07T05:39:24.343Z,59.86
2023-08-07T05:40:24.182Z,60.16
2023-08-07T05:41:24.128Z,60.68
2023-08-07T05:42:24.079Z,61.21
2023-08-07T05:43:24.066Z,60.64
2023-08-07T05:44:24.081Z,60.21
2023-08-07T05:45:24.064Z,60.12
2023-08-07T05:46:24.091Z,60.03
2023-08-07T05:47:24.089Z,59.82
2023-08-07T05:48:24.024Z,59.86
2023-08-07T05:49:25.919Z,60.73
2023-08-07T05:50:24.024Z,60.90
2023-08-07T05:51:24.021Z,61.04
2023-08-07T05:52:24.000Z,61.12
2023-08-07T05:53:23.971Z,61.04
2023-08-07T05:54:23.981Z,60.77
2023-08-07T05:55:23.987Z,60.03
2023-08-07T05:56:24.008Z,60.38
2023-08-07T05:57:23.936Z,60.33
2023-08-07T05:58:23.950Z,60.73
2023-08-07T05:59:23.907Z,60.08
2023-08-07T06:00:23.911Z,59.65
2023-08-07T06:01:23.934Z,59.06
2023-08-07T06:02:23.911Z,59.02
2023-08-07T06:03:23.884Z,58.90
2023-08-07T06:04:23.918Z,58.98
2023-08-07T06:05:23.880Z,59.15
2023-08-07T06:06:23.872Z,59.10
2023-08-07T06:07:23.897Z,59.65
2023-08-07T06:08:23.814Z,59.78
2023-08-07T06:09:23.842Z,59.15
2023-08-07T06:10:23.808Z,58.94
2023-08-07T06:11:23.781Z,58.69
2023-08-07T06:12:23.793Z,58.86
2023-08-07T06:13:35.490Z,59.36
2023-08-07T06:14:23.789Z,59.57
2023-08-07T06:15:23.779Z,60.47
2023-08-07T06:16:23.853Z,60.25
2023-08-07T06:17:23.758Z,59.91
2023-08-07T06:18:23.711Z,59.65
2023-08-07T06:19:31.404Z,59.61
2023-08-07T06:20:23.708Z,59.74
2023-08-07T06:21:23.684Z,59.82
2023-08-07T06:22:24.051Z,59.23
2023-08-07T06:23:23.690Z,59.48
2023-08-07T06:24:23.657Z,59.02
2023-08-07T06:25:23.678Z,58.57
2023-08-07T06:26:23.650Z,58.65
2023-08-07T06:27:23.611Z,58.78
2023-08-07T06:28:23.630Z,59.48
2023-08-07T06:29:23.643Z,59.31
2023-08-07T06:30:23.589Z,58.86
2023-08-07T06:31:24.071Z,58.98
2023-08-07T06:32:24.653Z,58.82
2023-08-07T06:33:24.408Z,59.48
2023-08-07T06:34:24.438Z,59.48
2023-08-07T06:35:24.497Z,59.61
2023-08-07T06:36:23.518Z,59.27
2023-08-07T06:37:23.553Z,58.86
2023-08-07T06:38:23.514Z,58.69
2023-08-07T06:39:23.500Z,58.49
2023-08-07T06:40:23.496Z,58.49
2023-08-07T06:41:23.478Z,58.65
2023-08-07T06:42:23.464Z,59.06
2023-08-07T06:43:23.539Z,59.19
2023-08-07T06:44:23.452Z,59.31
2023-08-07T06:45:23.442Z,59.78
2023-08-07T06:46:23.536Z,59.74
2023-08-07T06:47:23.444Z,59.52
2023-08-07T06:48:23.395Z,59.44
2023-08-07T06:49:23.437Z,59.31
2023-08-07T06:50:23.384Z,58.98
2023-08-07T06:51:23.385Z,58.90
2023-08-07T06:52:23.353Z,58.73
2023-08-07T06:53:23.388Z,59.02
2023-08-07T06:54:23.416Z,58.90
2023-08-07T06:55:23.356Z,58.33
2023-08-07T06:56:23.319Z,56.83
2023-08-07T06:57:23.309Z,56.60
2023-08-07T06:58:23.293Z,56.87
2023-08-07T06:59:23.282Z,57.18
2023-08-07T07:00:23.307Z,57.29
2023-08-07T07:01:23.368Z,57.37
2023-08-07T07:02:23.358Z,58.73
2023-08-07T07:03:23.324Z,58.37
2023-08-07T07:04:23.236Z,58.61
2023-08-07T07:05:23.232Z,58.21
2023-08-07T07:06:23.245Z,57.02
2023-08-07T07:07:23.220Z,56.83
2023-08-07T07:08:23.227Z,56.26
2023-08-07T07:09:23.210Z,55.77
2023-08-07T07:10:23.245Z,55.99
2023-08-07T07:11:23.160Z,56.22
2023-08-07T07:12:23.175Z,56.18
2023-08-07T07:13:23.156Z,55.59
2023-08-07T07:14:23.139Z,55.59
2023-08-07T07:15:23.139Z,55.62
2023-08-07T07:16:23.440Z,55.66
2023-08-07T07:17:23.179Z,54.61
2023-08-07T07:18:23.126Z,54.19
2023-08-07T07:19:23.098Z,53.64
2023-08-07T07:20:23.078Z,53.64
2023-08-07T07:21:23.104Z,54.37
2023-08-07T07:22:23.118Z,54.51
2023-08-07T07:23:23.069Z,53.71
2023-08-07T07:24:23.028Z,53.81
2023-08-07T07:25:23.050Z,54.26
2023-08-07T07:26:23.020Z,54.15
2023-08-07T07:27:23.529Z,54.83
2023-08-07T07:28:22.987Z,54.97
2023-08-07T07:29:22.979Z,54.97
2023-08-07T07:30:23.030Z,55.11
2023-08-07T07:31:23.048Z,54.93
2023-08-07T07:32:22.961Z,54.44
2023-08-07T07:33:22.946Z,54.90
2023-08-07T07:34:22.924Z,55.33
2023-08-07T07:35:22.953Z,56.11
2023-08-07T07:36:22.966Z,55.99
2023-08-07T07:37:22.995Z,56.29
2023-08-07T07:38:22.894Z,57.18
2023-08-07T07:39:22.887Z,57.29
2023-08-07T07:40:22.856Z,57.69
2023-08-07T07:41:22.858Z,59.19
2023-08-07T07:42:22.865Z,61.35
2023-08-07T07:43:23.170Z,61.85
2023-08-07T07:44:22.861Z,61.85
2023-08-07T07:45:22.826Z,63.43
2023-08-07T07:46:22.810Z,64.95
2023-08-07T07:47:22.839Z,64.95
2023-08-07T07:48:22.821Z,66.23
2023-08-07T07:49:22.816Z,66.70
2023-08-07T07:50:22.790Z,66.92
2023-08-07T07:51:22.793Z,67.40
2023-08-07T07:52:22.793Z,65.66
2023-08-07T07:53:24.747Z,65.30
2023-08-07T07:54:22.731Z,65.30
2023-08-07T07:55:22.809Z,64.70
2023-08-07T07:56:22.745Z,63.29
2023-08-07T07:57:22.709Z,63.91
2023-08-07T07:58:22.707Z,63.53
2023-08-07T07:59:22.663Z,63.53
2023-08-07T08:00:22.655Z,62.49
2023-08-07T08:01:22.657Z,61.30
2023-08-07T08:02:22.647Z,61.53
2023-08-07T08:03:22.736Z,61.71
2023-08-07T08:04:22.775Z,61.04
2023-08-07T08:05:22.638Z,60.95
2023-08-07T08:06:22.608Z,60.29
2023-08-07T08:07:22.615Z,60.42
2023-08-07T08:08:22.611Z,60.64
2023-08-07T08:09:22.599Z,59.86
2023-08-07T08:10:22.544Z,58.45
2023-08-07T08:11:22.601Z,57.18
2023-08-07T08:12:22.525Z,56.29
2023-08-07T08:13:22.571Z,55.77
2023-08-07T08:14:22.534Z,55.85
2023-08-07T08:15:22.693Z,55.88
2023-08-07T08:16:22.559Z,56.45
2023-08-07T08:17:22.534Z,57.33
2023-08-07T08:18:22.483Z,57.02
2023-08-07T08:19:22.709Z,57.65
2023-08-07T08:20:22.440Z,57.92
2023-08-07T08:21:22.440Z,57.53
2023-08-07T08:22:22.429Z,57.92
2023-08-07T08:23:22.434Z,57.53
2023-08-07T08:24:22.431Z,57.25
2023-08-07T08:25:22.430Z,57.92
2023-08-07T08:26:22.421Z,58.29
2023-08-07T08:27:22.465Z,59.19
2023-08-07T08:28:24.986Z,60.95
2023-08-07T08:29:22.381Z,70.92
2023-08-07T08:30:22.371Z,92.86
2023-08-07T08:31:22.393Z,110.39
2023-08-07T08:32:22.362Z,136.69
2023-08-07T08:33:22.316Z,166.46
2023-08-07T08:34:22.321Z,208.49
2023-08-07T08:35:22.322Z,236.71
2023-08-07T08:36:22.277Z,274.44
2023-08-07T08:37:22.284Z,302.02
2023-08-07T08:38:24.804Z,324.55
2023-08-07T08:39:22.276Z,343.79
2023-08-07T08:40:22.241Z,380.85
2023-08-07T08:41:22.250Z,414.20
2023-08-07T08:42:22.212Z,417.80
2023-08-07T08:43:22.222Z,436.82
2023-08-07T08:44:22.212Z,435.12
2023-08-07T08:45:22.354Z,431.77
2023-08-07T08:46:22.323Z,429.01
2023-08-07T08:47:22.226Z,431.77
2023-08-07T08:48:22.165Z,434.84
2023-08-07T08:49:22.164Z,442.57
2023-08-07T08:50:22.146Z,431.21
2023-08-07T08:51:22.121Z,411.15
2023-08-07T08:52:22.123Z,405.20
2023-08-07T08:53:22.156Z,389.46
2023-08-07T08:54:22.145Z,389.69
2023-08-07T08:55:22.123Z,384.78
2023-08-07T08:56:22.083Z,364.65
2023-08-07T08:57:22.071Z,337.82
2023-08-07T08:58:22.050Z,327.77
2023-08-07T08:59:22.043Z,308.79
2023-08-07T09:00:22.055Z,287.82
2023-08-07T09:01:25.063Z,283.86
2023-08-07T09:02:22.037Z,296.60
2023-08-07T09:03:22.087Z,319.23
2023-08-07T09:04:22.032Z,331.05
2023-08-07T09:05:22.003Z,371.20
2023-08-07T09:06:21.977Z,407.91
2023-08-07T09:07:21.999Z,429.28
2023-08-07T09:08:21.949Z,442.57
2023-08-07T09:09:21.954Z,459.84
2023-08-07T09:10:21.952Z,498.02
2023-08-07T09:11:21.919Z,530.25
2023-08-07T09:12:21.933Z,535.32
2023-08-07T09:13:21.901Z,528.58
2023-08-07T09:14:21.876Z,533.20
2023-08-07T09:15:21.888Z,573.72
2023-08-07T09:16:21.882Z,612.42
2023-08-07T09:17:21.917Z,627.29
2023-08-07T09:18:21.855Z,648.48
2023-08-07T09:19:21.855Z,651.63
2023-08-07T09:20:21.821Z,646.61
2023-08-07T09:21:21.904Z,642.90
2023-08-07T09:22:21.814Z,645.99
2023-08-07T09:23:21.799Z,626.12
2023-08-07T09:24:22.812Z,614.10
2023-08-07T09:25:21.900Z,605.80
2023-08-07T09:26:21.767Z,595.59
2023-08-07T09:27:21.756Z,580.66
2023-08-07T09:28:21.890Z,556.15
2023-08-07T09:29:21.769Z,527.34
2023-08-07T09:30:21.799Z,540.49
2023-08-07T09:31:21.940Z,547.09
2023-08-07T09:32:21.711Z,573.23
2023-08-07T09:33:21.695Z,605.25
2023-08-07T09:34:21.730Z,636.80
2023-08-07T09:35:21.684Z,701.28
2023-08-07T09:36:21.709Z,716.23
2023-08-07T09:37:21.650Z,735.85
2023-08-07T09:38:21.705Z,747.31
2023-08-07T09:39:21.653Z,735.85
2023-08-07T09:40:21.689Z,743.99
2023-08-07T09:41:21.703Z,745.65
2023-08-07T09:42:21.696Z,753.08
2023-08-07T09:43:21.700Z,761.18
2023-08-07T09:44:21.703Z,762.47
2023-08-07T09:45:21.687Z,769.45
2023-08-07T09:46:21.720Z,743.99
2023-08-07T09:47:21.630Z,730.25
2023-08-07T09:48:21.669Z,698.37
2023-08-07T09:49:21.538Z,701.28
2023-08-07T09:50:21.528Z,704.96
2023-08-07T09:51:21.499Z,698.37
2023-08-07T09:52:21.527Z,673.85
2023-08-07T09:53:21.487Z,632.01
2023-08-07T09:54:21.501Z,591.40
2023-08-07T09:55:21.483Z,555.69
2023-08-07T09:56:21.458Z,542.23
2023-08-07T09:57:21.497Z,534.47
2023-08-07T09:58:21.451Z,540.05
2023-08-07T09:59:21.454Z,515.21
2023-08-07T10:00:21.502Z,522.01
2023-08-07T10:01:21.497Z,558.00
2023-08-07T10:02:21.459Z,614.66
2023-08-07T10:03:21.459Z,664.52
2023-08-07T10:04:21.374Z,675.88
2023-08-07T10:05:21.375Z,723.95
2023-08-07T10:06:21.371Z,788.39
2023-08-07T10:07:21.342Z,795.39
2023-08-07T10:08:21.332Z,827.18
2023-08-07T10:09:21.336Z,880.81
2023-08-07T10:10:21.344Z,944.52
2023-08-07T10:11:21.326Z,1004.48
2023-08-07T10:12:21.310Z,1042.64
2023-08-07T10:13:25.794Z,1059.06
2023-08-07T10:14:21.290Z,1047.51
2023-08-07T10:15:21.305Z,1103.36
2023-08-07T10:16:21.334Z,1130.25
2023-08-07T10:17:21.256Z,1162.49
2023-08-07T10:18:21.231Z,1187.11
2023-08-07T10:19:21.218Z,1183.98
2023-08-07T10:20:21.221Z,1175.70
2023-08-07T10:21:21.199Z,1146.63
2023-08-07T10:22:21.222Z,1224.95
2023-08-07T10:23:21.182Z,1174.67
2023-08-07T10:24:21.159Z,1172.62
2023-08-07T10:25:21.157Z,1192.38
2023-08-07T10:26:21.165Z,1194.49
2023-08-07T10:27:21.135Z,1266.48
2023-08-07T10:28:21.157Z,1255.83
2023-08-07T10:29:21.133Z,1251.16
2023-08-07T10:30:21.115Z,1313.48
2023-08-07T10:31:21.134Z,1317.33
2023-08-07T10:32:21.092Z,1318.63
2023-08-07T10:33:21.104Z,1361.33
2023-08-07T10:34:21.092Z,1345.00
2023-08-07T10:35:21.056Z,1371.05
2023-08-07T10:36:21.035Z,1353.12
2023-08-07T10:37:21.029Z,1408.38
2023-08-07T10:38:21.027Z,1426.30
2023-08-07T10:39:21.018Z,1398.13
2023-08-07T10:40:21.012Z,1278.52
2023-08-07T10:41:20.986Z,1243.07
2023-08-07T10:42:20.977Z,1191.32
2023-08-07T10:43:20.997Z,1197.68
2023-08-07T10:44:20.971Z,1143.71
2023-08-07T10:45:20.949Z,1153.52
2023-08-07T10:46:23.717Z,1183.98
2023-08-07T10:47:20.964Z,1214.99
2023-08-07T10:48:20.985Z,1216.09
2023-08-07T10:49:20.940Z,1195.56
2023-08-07T10:50:20.896Z,1154.51
2023-08-07T10:51:20.892Z,1220.51
2023-08-07T10:52:20.877Z,1240.78
2023-08-07T10:53:20.921Z,1236.21
2023-08-07T10:54:20.856Z,1181.90
2023-08-07T10:55:20.868Z,1093.49
2023-08-07T10:56:20.837Z,1041.83
2023-08-07T10:57:20.848Z,986.07
2023-08-07T10:58:20.814Z,949.19
2023-08-07T10:59:20.810Z,911.86
2023-08-07T11:00:20.801Z,876.22
2023-08-07T11:01:21.019Z,853.97
2023-08-07T11:02:20.791Z,841.68
2023-08-07T11:03:20.776Z,886.62
2023-08-07T11:04:20.743Z,930.15
2023-08-07T11:05:20.819Z,981.75
2023-08-07T11:06:20.729Z,1016.63
2023-08-07T11:07:20.718Z,1072.57
2023-08-07T11:08:20.750Z,1151.54
2023-08-07T11:09:20.729Z,1173.65
2023-08-07T11:10:20.724Z,1175.70
2023-08-07T11:11:20.694Z,1235.08
2023-08-07T11:12:20.661Z,1236.21
2023-08-07T11:13:20.689Z,1217.19
2023-08-07T11:14:20.734Z,1193.43
2023-08-07T11:15:20.668Z,1175.70
2023-08-07T11:16:20.716Z,1155.50
2023-08-07T11:17:20.747Z,1190.27
2023-08-07T11:18:20.625Z,1183.98
2023-08-07T11:19:20.633Z,1143.71
2023-08-07T11:20:20.622Z,1139.83
2023-08-07T11:21:20.643Z,1218.30
2023-08-07T11:22:20.596Z,1273.67
2023-08-07T11:23:20.559Z,1230.56
2023-08-07T11:24:20.582Z,1280.95
2023-08-07T11:25:20.529Z,1271.27
2023-08-07T11:26:20.530Z,1237.35
2023-08-07T11:27:20.508Z,1257.01
2023-08-07T11:28:20.530Z,1318.63
2023-08-07T11:29:20.523Z,1350.40
2023-08-07T11:30:20.494Z,1393.78
2023-08-07T11:31:20.781Z,1386.60
2023-08-07T11:32:20.525Z,1338.31
2023-08-07T11:33:20.611Z,1336.98
2023-08-07T11:34:20.451Z,1361.33
2023-08-07T11:35:20.493Z,1342.31
2023-08-07T11:36:20.467Z,1364.10
2023-08-07T11:37:20.412Z,1333.00
2023-08-07T11:38:20.485Z,1295.76
2023-08-07T11:39:20.389Z,1317.33
2023-08-07T11:40:20.366Z,1287.08
2023-08-07T11:41:20.377Z,1254.66
2023-08-07T11:42:20.399Z,1279.73
2023-08-07T11:43:20.385Z,1278.52
2023-08-07T11:44:20.572Z,1355.85
2023-08-07T11:45:20.392Z,1376.66
2023-08-07T11:46:20.314Z,1339.64
2023-08-07T11:47:20.319Z,1366.87
2023-08-07T11:48:20.321Z,1403.97
2023-08-07T11:49:20.270Z,1433.90
2023-08-07T11:50:20.312Z,1481.28
2023-08-07T11:51:20.252Z,1514.64
2023-08-07T11:52:20.252Z,1565.77
2023-08-07T11:53:20.266Z,1604.05
2023-08-07T11:54:20.279Z,1685.46
2023-08-07T11:55:20.280Z,1773.24
2023-08-07T11:56:20.219Z,1793.33
2023-08-07T11:57:20.250Z,1847.53
2023-08-07T11:58:20.195Z,1891.70
2023-08-07T11:59:20.293Z,1950.69
2023-08-07T12:00:20.191Z,1891.70
2023-08-07T12:01:22.432Z,1899.72
2023-08-07T12:02:20.219Z,1929.70
2023-08-07T12:03:20.182Z,1875.87
2023-08-07T12:04:20.164Z,1790.94
2023-08-07T12:05:20.194Z,1798.13
2023-08-07T12:06:20.137Z,1833.67
2023-08-07T12:07:20.101Z,1935.25
2023-08-07T12:08:20.108Z,1922.80
2023-08-07T12:09:20.095Z,1894.37
2023-08-07T12:10:20.057Z,1856.45
2023-08-07T12:11:20.051Z,1848.80
2023-08-07T12:12:20.033Z,1891.70
2023-08-07T12:13:20.060Z,1913.23
2023-08-07T12:14:20.048Z,1889.04
2023-08-07T12:15:20.012Z,1850.07
2023-08-07T12:16:20.091Z,1811.45
2023-08-07T12:17:19.990Z,1852.62
2023-08-07T12:18:19.993Z,1862.88
2023-08-07T12:19:19.976Z,1844.99
2023-08-07T12:20:19.983Z,1788.56
2023-08-07T12:21:19.982Z,1817.57
2023-08-07T12:22:19.941Z,1836.18
2023-08-07T12:23:19.933Z,1818.80
2023-08-07T12:24:19.936Z,1766.25
2023-08-07T12:25:19.921Z,1761.62
2023-08-07T12:26:19.918Z,1701.45
2023-08-07T12:27:19.900Z,1726.57
2023-08-07T12:28:19.888Z,1734.36
2023-08-07T12:29:19.882Z,1722.15
2023-08-07T12:30:19.912Z,1662.55
2023-08-07T12:31:19.992Z,1683.35
2023-08-07T12:32:19.944Z,1686.52
2023-08-07T12:33:19.834Z,1742.23
2023-08-07T12:35:19.875Z,1731.02
2023-08-07T12:36:20.834Z,1686.52
2023-08-07T12:37:19.828Z,1666.67
2023-08-07T12:38:19.770Z,1678.10
2023-08-07T12:39:20.089Z,1662.55
2023-08-07T12:43:19.742Z,1649.29
2023-08-07T12:44:19.707Z,1630.30